createdAt,value
2022-08-28T00:01:59.900Z,102020.38
2022-08-28T00:04:26.817Z,102018.72
2022-08-28T00:06:53.281Z,102016.41
2022-08-28T00:09:19.679Z,102023.94
2022-08-28T00:11:46.977Z,102017.91
2022-08-28T00:14:13.822Z,102016.22
2022-08-28T00:16:40.314Z,102023.34
2022-08-28T00:19:06.779Z,102018.31
2022-08-28T00:21:33.379Z,102015.00
2022-08-28T00:24:00.622Z,102019.19
2022-08-28T00:26:45.885Z,102023.78
2022-08-28T00:29:12.757Z,102018.34
2022-08-28T00:31:39.605Z,102014.19
2022-08-28T00:34:09.660Z,102016.69
2022-08-28T00:36:37.636Z,102023.59
2022-08-28T00:39:06.216Z,102012.06
2022-08-28T00:41:34.684Z,102024.19
2022-08-28T00:44:23.800Z,102025.47
2022-08-28T00:46:52.365Z,102016.47
2022-08-28T00:49:23.481Z,102014.78
2022-08-28T00:52:12.487Z,102014.19
2022-08-28T00:55:04.673Z,102019.63
2022-08-28T00:57:35.912Z,102020.47
2022-08-28T01:00:07.223Z,102015.22
2022-08-28T01:02:33.751Z,102025.50
2022-08-28T01:05:00.393Z,102031.19
2022-08-28T01:07:26.853Z,102024.66
2022-08-28T01:09:54.666Z,102021.94
2022-08-28T01:12:26.242Z,102023.84
2022-08-28T01:14:59.727Z,102030.94
2022-08-28T01:17:28.958Z,102024.91
2022-08-28T01:20:00.861Z,102023.00
2022-08-28T01:22:39.965Z,102022.16
2022-08-28T01:25:11.333Z,102014.00
2022-08-28T01:27:38.622Z,102019.03
2022-08-28T01:30:05.421Z,102011.28
2022-08-28T01:32:38.869Z,102013.38
2022-08-28T01:35:10.297Z,102016.31
2022-08-28T01:37:37.557Z,102016.97
2022-08-28T01:40:08.583Z,102019.69
2022-08-28T01:42:39.365Z,102018.81
2022-08-28T01:45:10.921Z,102019.06
2022-08-28T01:47:38.975Z,102019.47
2022-08-28T01:50:07.154Z,102018.63
2022-08-28T01:52:33.957Z,102019.28
2022-08-28T01:55:00.372Z,102014.66
2022-08-28T01:57:26.793Z,102019.47
2022-08-28T01:59:54.308Z,102014.84
2022-08-28T02:02:20.782Z,102014.03
2022-08-28T02:04:48.520Z,102024.91
2022-08-28T02:07:16.785Z,102015.91
2022-08-28T02:09:43.355Z,102020.53
2022-08-28T02:12:10.278Z,102018.03
2022-08-28T02:14:38.611Z,102017.63
2022-08-28T02:17:04.988Z,102028.72
2022-08-28T02:19:32.149Z,102026.00
2022-08-28T02:21:58.642Z,102024.97
2022-08-28T02:24:25.024Z,102026.00
2022-08-28T02:26:51.424Z,102035.44
2022-08-28T02:29:18.566Z,102028.94
2022-08-28T02:31:44.963Z,102037.09
2022-08-28T02:34:11.418Z,102035.84
2022-08-28T02:36:41.776Z,102036.69
2022-08-28T02:39:08.322Z,102031.88
2022-08-28T02:41:34.818Z,102023.91
2022-08-28T02:44:01.388Z,102027.69
2022-08-28T02:46:27.974Z,102025.78
2022-08-28T02:48:56.164Z,102026.03
2022-08-28T02:51:23.058Z,102021.63
2022-08-28T02:53:50.365Z,102035.03
2022-08-28T02:56:16.960Z,102029.56
2022-08-28T02:58:43.365Z,102029.81
2022-08-28T03:01:12.509Z,102035.03
2022-08-28T03:03:40.765Z,102034.38
2022-08-28T03:06:09.505Z,102036.28
2022-08-28T03:08:35.988Z,102036.91
2022-08-28T03:11:02.401Z,102037.53
2022-08-28T03:13:29.998Z,102042.13
2022-08-28T03:15:57.524Z,102040.69
2022-08-28T03:18:26.154Z,102036.91
2022-08-28T03:20:53.362Z,102044.88
2022-08-28T03:23:29.054Z,102038.59
2022-08-28T03:26:01.433Z,102045.69
2022-08-28T03:28:30.916Z,102042.97
2022-08-28T03:30:57.999Z,102048.41
2022-08-28T03:33:25.045Z,102043.44
2022-08-28T03:35:51.517Z,102043.19
2022-08-28T03:38:19.935Z,102047.81
2022-08-28T03:40:47.442Z,102045.91
2022-08-28T03:43:18.094Z,102045.69
2022-08-28T03:45:58.041Z,102042.78
2022-08-28T03:48:26.702Z,102052.41
2022-08-28T03:50:53.898Z,102048.00
2022-08-28T03:53:23.630Z,102046.53
2022-08-28T03:55:50.329Z,102048.41
2022-08-28T03:58:19.010Z,102042.97
2022-08-28T04:00:46.586Z,102045.69
2022-08-28T04:03:13.458Z,102054.50
2022-08-28T04:05:44.366Z,102053.22
2022-08-28T04:08:15.865Z,102055.13
2022-08-28T04:10:43.948Z,102065.00
2022-08-28T04:13:12.177Z,102066.84
2022-08-28T04:15:39.546Z,102063.75
2022-08-28T04:18:06.028Z,102069.38
2022-08-28T04:20:32.438Z,102074.63
2022-08-28T04:22:58.909Z,102070.22
2022-08-28T04:25:26.876Z,102069.38
2022-08-28T04:27:53.268Z,102074.63
2022-08-28T04:30:19.870Z,102071.50
2022-08-28T04:32:46.298Z,102075.06
2022-08-28T04:35:13.567Z,102076.09
2022-08-28T04:37:41.163Z,102076.53
2022-08-28T04:40:10.798Z,102069.78
2022-08-28T04:42:38.725Z,102075.88
2022-08-28T04:45:06.473Z,102074.00
2022-08-28T04:47:38.401Z,102077.56
2022-08-28T04:50:06.950Z,102085.50
2022-08-28T04:52:33.564Z,102081.25
2022-08-28T04:55:00.183Z,102084.19
2022-08-28T04:57:26.592Z,102084.63
2022-08-28T04:59:53.089Z,102087.56
2022-08-28T05:02:19.570Z,102094.72
2022-08-28T05:04:46.809Z,102089.28
2022-08-28T05:07:13.488Z,102091.59
2022-08-28T05:09:39.873Z,102090.13
2022-08-28T05:12:06.388Z,102102.47
2022-08-28T05:14:32.829Z,102103.97
2022-08-28T05:16:59.241Z,102102.50
2022-08-28T05:19:27.699Z,102108.34
2022-08-28T05:21:55.129Z,102100.81
2022-08-28T05:24:22.341Z,102108.75
2022-08-28T05:26:48.897Z,102109.41
2022-08-28T05:29:16.687Z,102112.56
2022-08-28T05:31:43.424Z,102114.25
2022-08-28T05:34:10.698Z,102108.78
2022-08-28T05:36:39.119Z,102118.44
2022-08-28T05:39:09.145Z,102116.56
2022-08-28T05:41:36.976Z,102115.06
2022-08-28T05:44:06.997Z,102105.22
2022-08-28T05:46:35.628Z,102109.41
2022-08-28T05:49:03.949Z,102112.31
2022-08-28T05:51:34.218Z,102108.34
2022-08-28T05:54:01.946Z,102114.47
2022-08-28T05:56:31.240Z,102113.41
2022-08-28T05:58:59.943Z,102114.84
2022-08-28T06:01:29.453Z,102118.44
2022-08-28T06:03:58.153Z,102122.41
2022-08-28T06:06:26.536Z,102119.69
2022-08-28T06:08:59.129Z,102118.63
2022-08-28T06:11:31.284Z,102118.44
2022-08-28T06:14:01.725Z,102120.72
2022-08-28T06:16:31.645Z,102123.44
2022-08-28T06:18:59.150Z,102120.31
2022-08-28T06:21:26.061Z,102125.75
2022-08-28T06:23:52.569Z,102125.13
2022-08-28T06:26:19.119Z,102130.97
2022-08-28T06:28:45.807Z,102134.53
2022-08-28T06:31:23.540Z,102139.38
2022-08-28T06:33:53.810Z,102133.94
2022-08-28T06:36:20.375Z,102133.09
2022-08-28T06:38:46.928Z,102133.94
2022-08-28T06:41:15.441Z,102138.72
2022-08-28T06:43:42.372Z,102140.00
2022-08-28T06:46:09.110Z,102135.59
2022-08-28T06:48:35.638Z,102136.00
2022-08-28T06:51:06.650Z,102133.50
2022-08-28T06:53:33.668Z,102135.16
2022-08-28T06:56:25.577Z,102139.38
2022-08-28T06:58:55.114Z,102146.28
2022-08-28T07:01:29.105Z,102150.88
2022-08-28T07:04:01.530Z,102143.97
2022-08-28T07:06:32.239Z,102149.22
2022-08-28T07:08:58.679Z,102149.84
2022-08-28T07:11:28.819Z,102153.81
2022-08-28T07:13:56.617Z,102153.38
2022-08-28T07:16:27.153Z,102154.41
2022-08-28T07:18:54.164Z,102147.28
2022-08-28T07:21:20.962Z,102150.03
2022-08-28T07:23:47.479Z,102160.28
2022-08-28T07:26:17.502Z,102156.72
2022-08-28T07:28:44.010Z,102163.00
2022-08-28T07:31:22.841Z,102160.06
2022-08-28T07:33:53.525Z,102170.13
2022-08-28T07:36:29.006Z,102168.47
2022-08-28T07:38:58.294Z,102170.34
2022-08-28T07:41:28.310Z,102170.34
2022-08-28T07:44:13.394Z,102169.91
2022-08-28T07:46:41.130Z,102164.44
2022-08-28T07:49:08.693Z,102170.13
2022-08-28T07:51:35.427Z,102178.91
2022-08-28T07:54:03.811Z,102175.34
2022-08-28T07:56:30.958Z,102170.97
2022-08-28T07:58:58.596Z,102174.94
2022-08-28T08:01:26.803Z,102181.66
2022-08-28T08:03:55.931Z,102179.56
2022-08-28T08:06:34.471Z,102178.53
2022-08-28T08:09:02.275Z,102176.81
2022-08-28T08:11:32.632Z,102183.13
2022-08-28T08:14:05.483Z,102195.25
2022-08-28T08:16:38.987Z,102194.84
2022-08-28T08:19:09.699Z,102192.75
2022-08-28T08:21:36.877Z,102195.06
2022-08-28T08:24:03.594Z,102194.84
2022-08-28T08:26:30.087Z,102189.16
2022-08-28T08:28:56.716Z,102194.38
2022-08-28T08:31:29.505Z,102202.09
2022-08-28T08:33:58.450Z,102203.63
2022-08-28T08:36:26.545Z,102197.53
2022-08-28T08:38:59.431Z,102198.53
2022-08-28T08:41:48.053Z,102191.81
2022-08-28T08:44:21.610Z,102197.09
2022-08-28T08:47:15.474Z,102188.91
2022-08-28T08:49:50.066Z,102194.31
2022-08-28T08:52:43.901Z,102185.94
2022-08-28T08:55:19.606Z,102191.78
2022-08-28T08:57:51.225Z,102185.69
2022-08-28T09:00:19.323Z,102192.16
2022-08-28T09:03:02.918Z,102191.72
2022-08-28T09:05:50.005Z,102186.69
2022-08-28T09:08:28.708Z,102190.25
2022-08-28T09:11:02.661Z,102189.19
2022-08-28T09:13:49.245Z,102189.56
2022-08-28T09:16:48.362Z,102196.25
2022-08-28T09:19:20.936Z,102193.13
2022-08-28T09:21:49.658Z,102191.88
2022-08-28T09:24:32.190Z,102192.88
2022-08-28T09:27:23.009Z,102197.91
2022-08-28T09:30:07.539Z,102200.81
2022-08-28T09:32:41.541Z,102205.81
2022-08-28T09:35:28.438Z,102202.63
2022-08-28T09:37:56.517Z,102201.53
2022-08-28T09:40:22.922Z,102199.44
2022-08-28T09:43:22.809Z,102196.31
2022-08-28T09:46:16.711Z,102200.25
2022-08-28T09:48:45.558Z,102194.69
2022-08-28T09:51:20.945Z,102203.03
2022-08-28T09:53:50.350Z,102197.88
2022-08-28T09:56:27.365Z,102202.34
2022-08-28T09:58:59.416Z,102201.28
2022-08-28T10:01:40.830Z,102213.28
2022-08-28T10:05:00.611Z,102205.13
2022-08-28T10:07:46.317Z,102205.00
2022-08-28T10:10:29.748Z,102198.94
2022-08-28T10:13:14.700Z,102202.06
2022-08-28T10:15:43.370Z,102198.91
2022-08-28T10:18:49.147Z,102198.69
2022-08-28T10:21:29.417Z,102198.09
2022-08-28T10:24:26.347Z,102202.91
2022-08-28T10:27:44.856Z,102196.84
2022-08-28T10:31:32.067Z,102204.78
2022-08-28T10:34:30.083Z,102208.88
2022-08-28T10:37:24.633Z,102210.97
2022-08-28T10:39:57.615Z,102197.75
2022-08-28T10:42:36.717Z,102197.94
2022-08-28T10:45:06.962Z,102199.47
2022-08-28T10:47:39.067Z,102211.06
2022-08-28T10:50:17.359Z,102207.25
2022-08-28T10:53:00.164Z,102203.97
2022-08-28T10:55:55.070Z,102199.88
2022-08-28T10:58:25.576Z,102197.78
2022-08-28T11:01:38.762Z,102214.19
2022-08-28T11:04:24.922Z,102206.88
2022-08-28T11:07:00.210Z,102195.25
2022-08-28T11:09:33.719Z,102200.16
2022-08-28T11:12:27.913Z,102210.00
2022-08-28T11:14:54.447Z,102210.78
2022-08-28T11:17:30.350Z,102201.78
2022-08-28T11:20:15.352Z,102201.00
2022-08-28T11:22:49.433Z,102201.41
2022-08-28T11:25:27.643Z,102204.41
2022-08-28T11:28:19.721Z,102218.16
2022-08-28T11:30:49.439Z,102222.66
2022-08-28T11:33:43.595Z,102228.56
2022-08-28T11:36:17.957Z,102222.31
2022-08-28T11:38:44.265Z,102217.34
2022-08-28T11:41:21.734Z,102226.16
2022-08-28T11:43:52.300Z,102224.25
2022-08-28T11:46:32.803Z,102219.97
2022-08-28T11:49:02.389Z,102217.00
2022-08-28T11:52:01.398Z,102211.47
2022-08-28T11:54:51.135Z,102219.34
2022-08-28T11:57:45.549Z,102226.47
2022-08-28T12:00:34.222Z,102215.28
2022-08-28T12:03:06.764Z,102220.84
2022-08-28T12:05:33.306Z,102225.09
2022-08-28T12:08:02.341Z,102215.28
2022-08-28T12:10:30.453Z,102212.31
2022-08-28T12:12:56.778Z,102223.97
2022-08-28T12:15:29.491Z,102219.03
2022-08-28T12:18:01.482Z,102219.38
2022-08-28T12:20:30.367Z,102208.94
2022-08-28T12:23:03.382Z,102204.63
2022-08-28T12:25:35.668Z,102203.09
2022-08-28T12:28:22.714Z,102198.31
2022-08-28T12:31:14.094Z,102212.31
2022-08-28T12:33:57.680Z,102205.31
2022-08-28T12:36:28.626Z,102206.47
2022-08-28T12:39:00.370Z,102205.00
2022-08-28T12:41:27.322Z,102199.78
2022-08-28T12:43:58.165Z,102198.59
2022-08-28T12:46:27.307Z,102208.03
2022-08-28T12:48:59.605Z,102193.44
2022-08-28T12:51:31.840Z,102197.38
2022-08-28T12:54:05.053Z,102200.69
2022-08-28T12:56:35.110Z,102210.88
2022-08-28T12:59:34.721Z,102216.47
2022-08-28T13:02:09.675Z,102209.34
2022-08-28T13:04:40.346Z,102212.47
2022-08-28T13:07:17.337Z,102205.91
2022-08-28T13:09:50.982Z,102209.78
2022-08-28T13:12:54.900Z,102200.78
2022-08-28T13:15:44.613Z,102207.00
2022-08-28T13:18:33.925Z,102206.69
2022-08-28T13:21:33.993Z,102211.28
2022-08-28T13:24:26.080Z,102219.75
2022-08-28T13:27:06.691Z,102204.25
2022-08-28T13:29:34.570Z,102206.44
2022-08-28T13:32:04.357Z,102203.16
2022-08-28T13:34:33.698Z,102200.78
2022-08-28T13:37:07.296Z,102195.66
2022-08-28T13:39:43.898Z,102200.63
2022-08-28T13:42:13.566Z,102206.16
2022-08-28T13:44:53.132Z,102198.91
2022-08-28T13:47:19.836Z,102198.19
2022-08-28T13:49:46.721Z,102204.13
2022-08-28T13:52:13.712Z,102204.38
2022-08-28T13:54:43.494Z,102204.72
2022-08-28T13:57:13.339Z,102186.53
2022-08-28T13:59:40.065Z,102189.88
2022-08-28T14:02:29.398Z,102194.84
2022-08-28T14:04:55.872Z,102203.50
2022-08-28T14:07:22.401Z,102197.69
2022-08-28T14:09:51.797Z,102192.81
2022-08-28T14:12:20.585Z,102198.03
2022-08-28T14:14:48.700Z,102188.84
2022-08-28T14:17:15.229Z,102189.94
2022-08-28T14:19:41.670Z,102194.09
2022-08-28T14:22:08.838Z,102198.03
2022-08-28T14:24:35.253Z,102197.06
2022-08-28T14:27:02.545Z,102192.28
2022-08-28T14:29:29.010Z,102187.41
2022-08-28T14:31:55.460Z,102194.34
2022-08-28T14:34:24.049Z,102192.53
2022-08-28T14:36:54.927Z,102196.47
2022-08-28T14:39:24.921Z,102198.84
2022-08-28T14:41:53.233Z,102182.50
2022-08-28T14:44:21.774Z,102194.72
2022-08-28T14:46:49.415Z,102193.06
2022-08-28T14:49:17.674Z,102194.66
2022-08-28T14:51:45.332Z,102195.72
2022-08-28T14:54:14.068Z,102195.34
2022-08-28T14:56:43.089Z,102190.69
2022-08-28T14:59:16.741Z,102192.59
2022-08-28T15:01:46.365Z,102192.00
2022-08-28T15:04:16.603Z,102201.28
2022-08-28T15:06:44.238Z,102195.03
2022-08-28T15:09:12.931Z,102184.72
2022-08-28T15:11:39.684Z,102193.06
2022-08-28T15:14:06.719Z,102196.63
2022-08-28T15:16:36.510Z,102199.81
2022-08-28T15:19:03.010Z,102196.94
2022-08-28T15:21:38.272Z,102204.31
2022-08-28T15:24:06.356Z,102198.78
2022-08-28T15:26:33.297Z,102186.41
2022-08-28T15:29:03.698Z,102188.84
2022-08-28T15:31:33.115Z,102191.34
2022-08-28T15:34:04.441Z,102183.72
2022-08-28T15:36:34.277Z,102188.03
2022-08-28T15:39:20.213Z,102184.41
2022-08-28T15:41:47.131Z,102186.31
2022-08-28T15:44:15.124Z,102186.75
2022-08-28T15:46:48.309Z,102177.09
2022-08-28T15:49:17.208Z,102174.84
2022-08-28T15:51:43.628Z,102185.22
2022-08-28T15:54:11.174Z,102175.09
2022-08-28T15:56:37.593Z,102174.69
2022-08-28T15:59:04.098Z,102170.50
2022-08-28T16:01:30.614Z,102178.13
2022-08-28T16:03:57.046Z,102172.56
2022-08-28T16:06:23.799Z,102170.66
2022-08-28T16:08:50.511Z,102177.81
2022-08-28T16:11:19.307Z,102171.66
2022-08-28T16:13:46.394Z,102168.91
2022-08-28T16:16:13.023Z,102174.38
2022-08-28T16:18:39.827Z,102161.41
2022-08-28T16:21:06.484Z,102166.56
2022-08-28T16:23:33.571Z,102170.38
2022-08-28T16:26:01.349Z,102163.25
2022-08-28T16:28:27.942Z,102173.81
2022-08-28T16:30:54.658Z,102179.75
2022-08-28T16:33:22.197Z,102174.94
2022-08-28T16:35:50.724Z,102179.75
2022-08-28T16:38:22.166Z,102177.78
2022-08-28T16:40:48.651Z,102172.09
2022-08-28T16:43:15.282Z,102180.69
2022-08-28T16:45:44.002Z,102176.28
2022-08-28T16:48:12.684Z,102176.09
2022-08-28T16:50:43.689Z,102178.31
2022-08-28T16:53:11.917Z,102184.38
2022-08-28T16:55:40.322Z,102182.03
2022-08-28T16:58:07.135Z,102177.38
2022-08-28T17:00:33.774Z,102181.44
2022-08-28T17:03:00.468Z,102173.00
2022-08-28T17:05:27.181Z,102180.13
2022-08-28T17:07:53.618Z,102186.22
2022-08-28T17:10:23.437Z,102180.81
2022-08-28T17:12:50.027Z,102175.78
2022-08-28T17:15:17.878Z,102176.25
2022-08-28T17:17:44.790Z,102180.03
2022-08-28T17:20:30.829Z,102179.81
2022-08-28T17:22:57.329Z,102183.16
2022-08-28T17:25:25.189Z,102181.72
2022-08-28T17:27:52.386Z,102181.94
2022-08-28T17:30:19.300Z,102179.00
2022-08-28T17:32:46.122Z,102180.03
2022-08-28T17:35:13.001Z,102178.38
2022-08-28T17:37:40.611Z,102179.44
2022-08-28T17:40:10.280Z,102177.53
2022-08-28T17:42:36.744Z,102167.22
2022-08-28T17:45:04.527Z,102178.16
2022-08-28T17:47:31.737Z,102171.00
2022-08-28T17:50:01.542Z,102179.00
2022-08-28T17:52:29.387Z,102176.25
2022-08-28T17:54:56.082Z,102178.16
2022-08-28T17:57:24.096Z,102174.81
2022-08-28T17:59:50.525Z,102176.56
2022-08-28T18:02:17.666Z,102172.81
2022-08-28T18:04:44.218Z,102172.41
2022-08-28T18:07:11.200Z,102175.00
2022-08-28T18:09:37.674Z,102171.44
2022-08-28T18:12:06.256Z,102170.75
2022-08-28T18:14:38.752Z,102170.50
2022-08-28T18:17:05.338Z,102171.16
2022-08-28T18:19:35.761Z,102174.94
2022-08-28T18:22:02.454Z,102167.56
2022-08-28T18:24:29.057Z,102164.84
2022-08-28T18:26:58.869Z,102164.84
2022-08-28T18:29:25.617Z,102169.47
2022-08-28T18:31:52.282Z,102161.88
2022-08-28T18:34:18.834Z,102173.63
2022-08-28T18:36:45.445Z,102175.34
2022-08-28T18:39:12.136Z,102176.84
2022-08-28T18:41:43.898Z,102173.72
2022-08-28T18:44:12.200Z,102172.50
2022-08-28T18:46:38.852Z,102180.06
2022-08-28T18:49:05.715Z,102177.19
2022-08-28T18:51:32.881Z,102178.84
2022-08-28T18:54:03.459Z,102184.31
2022-08-28T18:56:32.315Z,102178.94
2022-08-28T18:59:00.291Z,102182.31
2022-08-28T19:01:26.887Z,102191.19
2022-08-28T19:03:54.858Z,102190.34
2022-08-28T19:06:21.765Z,102190.34
2022-08-28T19:08:48.234Z,102190.97
2022-08-28T19:11:14.724Z,102199.00
2022-08-28T19:13:41.669Z,102194.19
2022-08-28T19:16:08.927Z,102196.75
2022-08-28T19:18:35.540Z,102200.41
2022-08-28T19:21:09.011Z,102199.53
2022-08-28T19:23:35.989Z,102200.59
2022-08-28T19:26:02.820Z,102213.00
2022-08-28T19:28:29.238Z,102206.94
2022-08-28T19:30:55.785Z,102210.94
2022-08-28T19:33:22.335Z,102206.31
2022-08-28T19:35:48.846Z,102215.09
2022-08-28T19:38:15.537Z,102219.72
2022-08-28T19:40:42.280Z,102222.47
2022-08-28T19:43:11.452Z,102223.94
2022-08-28T19:45:44.911Z,102222.53
2022-08-28T19:48:11.999Z,102220.00
2022-08-28T19:50:39.265Z,102223.59
2022-08-28T19:53:05.788Z,102230.31
2022-08-28T19:55:32.597Z,102224.88
2022-08-28T19:57:59.562Z,102234.78
2022-08-28T20:00:31.911Z,102233.53
2022-08-28T20:02:58.892Z,102232.47
2022-08-28T20:05:25.336Z,102244.22
2022-08-28T20:07:51.812Z,102237.53
2022-08-28T20:10:18.990Z,102238.38
2022-08-28T20:12:48.246Z,102241.75
2022-08-28T20:15:16.739Z,102244.50
2022-08-28T20:17:43.856Z,102238.22
2022-08-28T20:20:11.458Z,102241.59
2022-08-28T20:22:39.185Z,102242.22
2022-08-28T20:25:06.837Z,102245.78
2022-08-28T20:27:33.365Z,102251.50
2022-08-28T20:30:10.296Z,102248.56
2022-08-28T20:32:41.440Z,102235.16
2022-08-28T20:35:10.506Z,102235.63
2022-08-28T20:37:45.139Z,102244.22
2022-08-28T20:40:18.483Z,102243.41
2022-08-28T20:42:46.189Z,102245.47
2022-08-28T20:45:15.261Z,102243.41
2022-08-28T20:47:41.889Z,102240.03
2022-08-28T20:50:08.705Z,102247.19
2022-08-28T20:52:35.134Z,102249.09
2022-08-28T20:55:02.078Z,102252.84
2022-08-28T20:57:28.480Z,102265.25
2022-08-28T20:59:54.858Z,102260.25
2022-08-28T21:02:23.869Z,102269.44
2022-08-28T21:04:51.748Z,102264.00
2022-08-28T21:07:20.452Z,102269.25
2022-08-28T21:10:05.397Z,102275.78
2022-08-28T21:12:37.721Z,102275.13
2022-08-28T21:15:07.392Z,102278.06
2022-08-28T21:17:33.960Z,102271.97
2022-08-28T21:20:04.428Z,102273.88
2022-08-28T21:22:33.004Z,102273.03
2022-08-28T21:25:02.218Z,102264.00
2022-08-28T21:27:29.577Z,102266.34
2022-08-28T21:29:57.461Z,102261.06
2022-08-28T21:32:24.613Z,102272.38
2022-08-28T21:34:51.221Z,102274.06
2022-08-28T21:37:17.624Z,102270.09
2022-08-28T21:39:44.078Z,102279.34
2022-08-28T21:42:10.729Z,102281.19
2022-08-28T21:44:37.816Z,102279.75
2022-08-28T21:47:04.670Z,102284.56
2022-08-28T21:49:31.186Z,102279.13
2022-08-28T21:52:01.014Z,102273.66
2022-08-28T21:54:28.040Z,102282.47
2022-08-28T21:56:58.699Z,102286.03
2022-08-28T21:59:25.900Z,102275.97
2022-08-28T22:01:57.214Z,102271.56
2022-08-28T22:04:24.350Z,102279.53
2022-08-28T22:06:50.783Z,102271.56
2022-08-28T22:09:17.190Z,102278.28
2022-08-28T22:11:43.970Z,102269.47
2022-08-28T22:14:10.988Z,102275.97
2022-08-28T22:16:37.587Z,102276.81
2022-08-28T22:19:04.213Z,102279.31
2022-08-28T22:21:49.223Z,102275.75
2022-08-28T22:24:15.894Z,102282.03
2022-08-28T22:26:43.255Z,102277.22
2022-08-28T22:29:11.157Z,102279.94
2022-08-28T22:31:38.603Z,102284.38
2022-08-28T22:34:12.692Z,102284.56
2022-08-28T22:36:39.782Z,102286.47
2022-08-28T22:39:06.237Z,102289.19
2022-08-28T22:41:33.140Z,102292.97
2022-08-28T22:44:00.219Z,102284.16
2022-08-28T22:46:27.772Z,102291.09
2022-08-28T22:48:54.255Z,102279.75
2022-08-28T22:51:20.664Z,102278.31
2022-08-28T22:53:47.630Z,102280.63
2022-08-28T22:56:15.861Z,102273.69
2022-08-28T22:58:42.424Z,102263.22
2022-08-28T23:01:17.430Z,102269.94
2022-08-28T23:03:44.944Z,102275.59
2022-08-28T23:06:11.919Z,102270.34
2022-08-28T23:08:38.381Z,102267.00
2022-08-28T23:11:05.017Z,102273.47
2022-08-28T23:13:32.790Z,102273.94
2022-08-28T23:15:59.426Z,102268.66
2022-08-28T23:18:25.890Z,102267.00
2022-08-28T23:20:55.147Z,102264.50
2022-08-28T23:23:22.898Z,102267.41
2022-08-28T23:25:50.420Z,102259.88
2022-08-28T23:28:17.712Z,102265.31
2022-08-28T23:30:48.580Z,102260.28
2022-08-28T23:33:23.561Z,102261.34
2022-08-28T23:35:51.252Z,102264.91
2022-08-28T23:38:18.032Z,102254.22
2022-08-28T23:40:44.545Z,102251.28
2022-08-28T23:43:11.914Z,102247.72
2022-08-28T23:45:39.640Z,102246.88
2022-08-28T23:48:06.273Z,102248.13
2022-08-28T23:50:32.914Z,102251.50
2022-08-28T23:52:59.583Z,102244.97
2022-08-28T23:55:27.108Z,102248.13
2022-08-28T23:57:54.255Z,102246.44
